Time;durP1;ratioP1;P1;durP2;ratioP2;P2;SDS_P1;SDS_P2;PMS_P1;PMS_P2;Temp;Humidity;BMP_temperature;BMP_pressure;BME280_temperature;BME280_humidity;BME280_pressure;Samples;Min_cycle;Max_cycle;Signal;HPM_P1;HPM_P2
2023/12/21 00:00:34;;;;;;;;;;;9.30;99.90;;;;;;4924547;28;20542;-60
2023/12/21 00:03:00;;;;;;;;;;;9.20;99.90;;;;;;4940378;28;20037;-60
2023/12/21 00:05:25;;;;;;;;;;;9.30;99.90;;;;;;4942154;28;20020;-60
2023/12/21 00:07:51;;;;;;;;;;;9.20;99.90;;;;;;4931097;28;19956;-59
2023/12/21 00:10:16;;;;;;;;;;;9.30;99.90;;;;;;4924354;28;19934;-60
2023/12/21 00:12:42;;;;;;;;;;;9.20;99.90;;;;;;4930902;28;19932;-60
2023/12/21 00:15:08;;;;;;;;;;;9.20;99.90;;;;;;4934707;28;19934;-59
2023/12/21 00:17:33;;;;;;;;;;;9.20;99.90;;;;;;4906396;28;19965;-60
2023/12/21 00:19:59;;;;;;;;;;;9.30;99.90;;;;;;4916550;28;20410;-60
2023/12/21 00:22:25;;;;;;;;;;;9.30;99.90;;;;;;4921437;28;20000;-61
2023/12/21 00:24:50;;;;;;;;;;;9.30;99.90;;;;;;4916536;28;19969;-61
2023/12/21 00:27:16;;;;;;;;;;;9.30;99.90;;;;;;4916524;28;19934;-60
2023/12/21 00:29:41;;;;;;;;;;;9.30;99.90;;;;;;4916648;28;20973;-60
2023/12/21 00:32:07;;;;;;;;;;;9.30;99.90;;;;;;4936718;28;19922;-60
2023/12/21 00:34:32;;;;;;;;;;;9.30;99.90;;;;;;4938501;28;19926;-60
2023/12/21 00:36:58;;;;;;;;;;;9.30;99.90;;;;;;4936490;28;19929;-60
2023/12/21 00:39:24;;;;;;;;;;;9.30;99.90;;;;;;4935538;28;19922;-59
2023/12/21 00:41:50;;;;;;;;;;;9.30;99.90;;;;;;4905269;28;19969;-60
2023/12/21 00:44:15;;;;;;;;;;;9.30;99.90;;;;;;4937883;28;19926;-59
2023/12/21 00:46:41;;;;;;;;;;;9.30;99.90;;;;;;4940256;28;19930;-60
2023/12/21 00:49:07;;;;;;;;;;;9.30;99.90;;;;;;4919018;28;20397;-60
2023/12/21 00:51:32;;;;;;;;;;;9.30;99.90;;;;;;4920991;28;19927;-60
2023/12/21 00:53:58;;;;;;;;;;;9.30;99.90;;;;;;4939507;28;20295;-60
2023/12/21 00:56:23;;;;;;;;;;;9.30;99.90;;;;;;4936252;28;19929;-60
2023/12/21 00:58:49;;;;;;;;;;;9.30;99.90;;;;;;4919425;28;20394;-59
2023/12/21 01:01:15;;;;;;;;;;;9.30;99.90;;;;;;4941359;28;19933;-60
2023/12/21 01:03:40;;;;;;;;;;;9.30;99.90;;;;;;4909489;28;19929;-60
2023/12/21 01:06:07;;;;;;;;;;;9.30;99.90;;;;;;4933331;28;19970;-59
2023/12/21 01:08:32;;;;;;;;;;;9.30;99.90;;;;;;4939920;28;19938;-60
2023/12/21 01:10:59;;;;;;;;;;;9.30;99.90;;;;;;4936246;28;19922;-60
2023/12/21 01:13:25;;;;;;;;;;;9.30;99.90;;;;;;4936745;28;19918;-59
2023/12/21 01:15:51;;;;;;;;;;;9.30;99.90;;;;;;4931432;28;19929;-59
2023/12/21 01:18:17;;;;;;;;;;;9.30;99.90;;;;;;4937751;28;19922;-60
2023/12/21 01:20:43;;;;;;;;;;;9.30;99.90;;;;;;4923568;28;20380;-59
2023/12/21 01:23:09;;;;;;;;;;;9.30;99.90;;;;;;4920374;28;19926;-59
2023/12/21 01:25:35;;;;;;;;;;;9.30;99.90;;;;;;4939817;28;19937;-60
2023/12/21 01:28:00;;;;;;;;;;;9.30;99.90;;;;;;4926585;28;20005;-59
2023/12/21 01:30:27;;;;;;;;;;;9.30;99.90;;;;;;4934582;28;19944;-60
2023/12/21 01:32:53;;;;;;;;;;;9.30;99.90;;;;;;4936863;28;20001;-60
2023/12/21 01:35:18;;;;;;;;;;;9.30;99.90;;;;;;4934308;28;19922;-61
2023/12/21 01:37:44;;;;;;;;;;;9.30;99.90;;;;;;4935410;28;19922;-60
2023/12/21 01:40:10;;;;;;;;;;;9.30;99.90;;;;;;4929937;28;20385;-60
2023/12/21 01:42:35;;;;;;;;;;;9.30;99.90;;;;;;4931174;28;19929;-59
2023/12/21 01:45:01;;;;;;;;;;;9.30;99.90;;;;;;4929711;28;19931;-60
2023/12/21 01:47:27;;;;;;;;;;;9.20;99.90;;;;;;4923255;28;20057;-59
2023/12/21 01:49:53;;;;;;;;;;;9.20;99.90;;;;;;4930361;28;20720;-60
2023/12/21 01:52:19;;;;;;;;;;;9.30;99.90;;;;;;4938030;28;19934;-59
2023/12/21 01:54:44;;;;;;;;;;;9.20;99.90;;;;;;4951910;28;19922;-60
2023/12/21 01:57:10;;;;;;;;;;;9.20;99.90;;;;;;4940853;28;19933;-60
2023/12/21 01:59:36;;;;;;;;;;;9.20;99.90;;;;;;4938950;28;19922;-60
2023/12/21 02:02:01;;;;;;;;;;;9.20;99.90;;;;;;4935608;28;20370;-60
2023/12/21 02:04:27;;;;;;;;;;;9.20;99.90;;;;;;4917435;28;19928;-59
2023/12/21 02:06:52;;;;;;;;;;;9.20;99.90;;;;;;4940634;28;20028;-60
2023/12/21 02:09:18;;;;;;;;;;;9.20;99.90;;;;;;4934732;28;19926;-60
2023/12/21 02:11:45;;;;;;;;;;;9.10;99.90;;;;;;4930603;28;20007;-60
2023/12/21 02:14:11;;;;;;;;;;;9.10;99.90;;;;;;4935731;28;19982;-60
2023/12/21 02:16:44;;;;;;;;;;;9.10;99.90;;;;;;4936953;28;20353;-60
2023/12/21 02:19:10;;;;;;;;;;;9.10;99.90;;;;;;4938315;28;19926;-60
2023/12/21 02:21:37;;;;;;;;;;;9.10;99.90;;;;;;4938780;28;19934;-60
2023/12/21 02:24:03;;;;;;;;;;;9.10;99.90;;;;;;4919589;28;19929;-60
2023/12/21 02:26:29;;;;;;;;;;;9.10;99.90;;;;;;4921965;28;20448;-60
2023/12/21 02:28:54;;;;;;;;;;;9.10;99.90;;;;;;4940333;28;19923;-60
2023/12/21 02:31:20;;;;;;;;;;;9.10;99.90;;;;;;4937703;28;19964;-58
2023/12/21 02:33:45;;;;;;;;;;;9.10;99.90;;;;;;4941403;28;19926;-60
2023/12/21 02:36:11;;;;;;;;;;;9.10;99.90;;;;;;4937469;28;19976;-60
2023/12/21 02:38:38;;;;;;;;;;;9.10;99.90;;;;;;4936341;28;19926;-60
2023/12/21 02:41:04;;;;;;;;;;;9.10;99.90;;;;;;4942095;28;19922;-60
2023/12/21 02:43:29;;;;;;;;;;;9.10;99.90;;;;;;4940645;28;19922;-59
2023/12/21 02:45:55;;;;;;;;;;;9.10;99.90;;;;;;4922185;28;19938;-60
2023/12/21 02:48:20;;;;;;;;;;;9.10;99.90;;;;;;4940645;28;20336;-59
2023/12/21 02:50:46;;;;;;;;;;;9.10;99.90;;;;;;4919649;28;19922;-61
2023/12/21 02:53:11;;;;;;;;;;;9.10;99.90;;;;;;4919725;28;19926;-60
2023/12/21 02:55:37;;;;;;;;;;;9.10;99.90;;;;;;4922724;28;19936;-59
2023/12/21 02:58:03;;;;;;;;;;;9.10;99.90;;;;;;4921691;28;20415;-59
2023/12/21 03:00:28;;;;;;;;;;;9.10;99.90;;;;;;4917321;28;19922;-60
2023/12/21 03:02:54;;;;;;;;;;;9.10;99.90;;;;;;4938491;28;19922;-60
2023/12/21 03:05:19;;;;;;;;;;;9.10;99.90;;;;;;4935324;28;19969;-59
2023/12/21 03:07:45;;;;;;;;;;;9.10;99.90;;;;;;4922908;28;19922;-59
2023/12/21 03:10:10;;;;;;;;;;;9.10;99.90;;;;;;4936887;28;19938;-60
2023/12/21 03:12:36;;;;;;;;;;;9.10;99.90;;;;;;4940260;28;20902;-60
2023/12/21 03:15:02;;;;;;;;;;;9.20;99.90;;;;;;4917753;28;19972;-60
2023/12/21 03:17:28;;;;;;;;;;;9.10;99.90;;;;;;4935865;28;19918;-58
2023/12/21 03:19:53;;;;;;;;;;;9.10;99.90;;;;;;4938504;28;19930;-59
2023/12/21 03:22:19;;;;;;;;;;;9.10;99.90;;;;;;4937145;28;19988;-60
2023/12/21 03:24:45;;;;;;;;;;;9.10;99.90;;;;;;4939905;28;20016;-60
2023/12/21 03:27:12;;;;;;;;;;;9.10;99.90;;;;;;4921809;28;19922;-60
2023/12/21 03:29:38;;;;;;;;;;;9.10;99.90;;;;;;4921335;28;19929;-60
2023/12/21 03:32:04;;;;;;;;;;;9.10;99.90;;;;;;4919951;28;20293;-60
2023/12/21 03:34:29;;;;;;;;;;;9.10;99.90;;;;;;4921954;28;20443;-59
2023/12/21 03:36:55;;;;;;;;;;;9.10;99.90;;;;;;4932130;28;20399;-59
2023/12/21 03:39:20;;;;;;;;;;;9.10;99.90;;;;;;4926982;28;19929;-60
2023/12/21 03:41:46;;;;;;;;;;;9.10;99.90;;;;;;4938114;28;20384;-60
2023/12/21 03:44:11;;;;;;;;;;;9.10;99.90;;;;;;4943195;28;19926;-61
2023/12/21 03:46:37;;;;;;;;;;;9.10;99.90;;;;;;4936032;28;19918;-59
2023/12/21 03:49:02;;;;;;;;;;;9.10;99.90;;;;;;4922838;28;19980;-59
2023/12/21 03:51:28;;;;;;;;;;;9.10;99.90;;;;;;4936106;28;20408;-61
2023/12/21 03:53:54;;;;;;;;;;;9.10;99.90;;;;;;4937875;28;19997;-59
2023/12/21 03:56:20;;;;;;;;;;;9.20;99.90;;;;;;4939883;28;19918;-60
2023/12/21 03:58:45;;;;;;;;;;;9.10;99.90;;;;;;4939953;28;19918;-60
2023/12/21 04:01:11;;;;;;;;;;;9.10;99.90;;;;;;4916248;28;19966;-60
2023/12/21 04:03:36;;;;;;;;;;;9.10;99.90;;;;;;4915859;28;19926;-60
2023/12/21 04:06:02;;;;;;;;;;;9.10;99.90;;;;;;4938644;28;20484;-61
2023/12/21 04:08:27;;;;;;;;;;;9.10;99.90;;;;;;4921189;28;20384;-60
2023/12/21 04:10:53;;;;;;;;;;;9.10;99.90;;;;;;4921115;28;19922;-60
2023/12/21 04:13:18;;;;;;;;;;;9.10;99.90;;;;;;4914280;28;19929;-60
2023/12/21 04:15:44;;;;;;;;;;;9.10;99.90;;;;;;4937314;28;19922;-59
2023/12/21 04:18:10;;;;;;;;;;;9.10;99.90;;;;;;4940750;28;19926;-60
2023/12/21 04:20:35;;;;;;;;;;;9.10;99.90;;;;;;4941696;28;19926;-60
2023/12/21 04:23:01;;;;;;;;;;;9.10;99.90;;;;;;4937956;28;19922;-60
2023/12/21 04:25:26;;;;;;;;;;;9.10;99.90;;;;;;4937343;28;20013;-59
2023/12/21 04:27:52;;;;;;;;;;;9.10;99.90;;;;;;4938707;28;19926;-60
2023/12/21 04:30:18;;;;;;;;;;;9.10;99.90;;;;;;4934863;28;22199;-59
2023/12/21 04:32:43;;;;;;;;;;;9.10;99.90;;;;;;4904649;28;25862;-60
2023/12/21 04:35:10;;;;;;;;;;;9.10;99.90;;;;;;4941226;28;19923;-60
2023/12/21 04:37:35;;;;;;;;;;;9.10;99.90;;;;;;4937473;28;19926;-60
2023/12/21 04:40:01;;;;;;;;;;;9.10;99.90;;;;;;4948726;28;20274;-59
2023/12/21 04:42:27;;;;;;;;;;;9.10;99.90;;;;;;4933684;28;19941;-59
2023/12/21 04:44:52;;;;;;;;;;;9.10;99.90;;;;;;4936236;28;19937;-60
2023/12/21 04:47:18;;;;;;;;;;;9.10;99.90;;;;;;4936932;28;20008;-60
2023/12/21 04:49:43;;;;;;;;;;;9.10;99.90;;;;;;4934542;28;19922;-59
2023/12/21 04:52:09;;;;;;;;;;;9.10;99.90;;;;;;4931764;28;19926;-60
2023/12/21 04:54:35;;;;;;;;;;;9.10;99.90;;;;;;4934852;28;19960;-61
2023/12/21 04:57:00;;;;;;;;;;;9.10;99.90;;;;;;4935324;28;19928;-59
2023/12/21 04:59:26;;;;;;;;;;;9.00;99.90;;;;;;4925200;28;20044;-60
2023/12/21 05:01:53;;;;;;;;;;;9.10;99.90;;;;;;4934462;28;19970;-60
2023/12/21 05:04:18;;;;;;;;;;;9.10;99.90;;;;;;4917955;28;20289;-60
2023/12/21 05:06:44;;;;;;;;;;;9.00;99.90;;;;;;4935719;28;19961;-60
2023/12/21 05:09:09;;;;;;;;;;;9.10;99.90;;;;;;4909987;28;20492;-60
2023/12/21 05:11:35;;;;;;;;;;;9.10;99.90;;;;;;4930106;28;19965;-59
2023/12/21 05:14:01;;;;;;;;;;;9.10;99.90;;;;;;4936701;28;19933;-60
2023/12/21 05:16:26;;;;;;;;;;;9.10;99.90;;;;;;4927969;28;21214;-59
2023/12/21 05:18:52;;;;;;;;;;;9.10;99.90;;;;;;4929000;28;19926;-60
2023/12/21 05:21:17;;;;;;;;;;;9.10;99.90;;;;;;4939323;28;20013;-60
2023/12/21 05:23:43;;;;;;;;;;;9.10;99.90;;;;;;4930696;28;20391;-60
2023/12/21 05:26:10;;;;;;;;;;;9.10;99.90;;;;;;4947351;28;19960;-60
2023/12/21 05:28:38;;;;;;;;;;;9.10;99.90;;;;;;4947865;28;20374;-60
2023/12/21 05:31:04;;;;;;;;;;;9.10;99.90;;;;;;4925103;28;20016;-60
2023/12/21 05:33:29;;;;;;;;;;;9.10;99.90;;;;;;4931049;28;19921;-61
2023/12/21 05:35:55;;;;;;;;;;;9.10;99.90;;;;;;4953757;28;20107;-59
2023/12/21 05:38:20;;;;;;;;;;;9.10;99.90;;;;;;4933461;28;19928;-59
2023/12/21 05:40:46;;;;;;;;;;;9.10;99.90;;;;;;4947974;28;20395;-60
2023/12/21 05:43:11;;;;;;;;;;;9.10;99.90;;;;;;4931710;28;19921;-59
2023/12/21 05:45:37;;;;;;;;;;;9.10;99.90;;;;;;4954036;28;19932;-60
2023/12/21 05:48:03;;;;;;;;;;;9.10;99.90;;;;;;4961539;28;19931;-60
2023/12/21 05:50:28;;;;;;;;;;;9.10;99.90;;;;;;4958243;28;20016;-60
2023/12/21 05:52:54;;;;;;;;;;;9.10;99.90;;;;;;4958028;28;19922;-60
2023/12/21 05:55:21;;;;;;;;;;;9.10;99.90;;;;;;4939077;28;19968;-60
2023/12/21 05:57:46;;;;;;;;;;;9.10;99.90;;;;;;4962620;28;19926;-60
2023/12/21 06:00:12;;;;;;;;;;;9.10;99.90;;;;;;4946001;28;19980;-60
2023/12/21 06:02:38;;;;;;;;;;;9.20;99.90;;;;;;4962204;28;19929;-60
2023/12/21 06:05:04;;;;;;;;;;;9.10;99.90;;;;;;4939248;28;19925;-59
2023/12/21 06:07:29;;;;;;;;;;;9.20;99.90;;;;;;4959329;28;19977;-60
2023/12/21 06:09:55;;;;;;;;;;;9.20;99.90;;;;;;4937799;28;20402;-61
2023/12/21 06:12:21;;;;;;;;;;;9.20;99.90;;;;;;4955865;28;19925;-60
2023/12/21 06:14:47;;;;;;;;;;;9.20;99.90;;;;;;4957591;28;19926;-60
2023/12/21 06:17:14;;;;;;;;;;;9.20;99.90;;;;;;4957670;28;20382;-60
2023/12/21 06:19:43;;;;;;;;;;;9.20;99.90;;;;;;4958837;28;20432;-60
2023/12/21 06:22:09;;;;;;;;;;;9.20;99.90;;;;;;4955065;28;19939;-60
2023/12/21 06:24:34;;;;;;;;;;;9.20;99.90;;;;;;4943744;28;19937;-60
2023/12/21 06:27:00;;;;;;;;;;;9.20;99.90;;;;;;4949950;28;20373;-59
2023/12/21 06:29:25;;;;;;;;;;;9.20;99.90;;;;;;4951587;28;19922;-61
2023/12/21 06:31:51;;;;;;;;;;;9.20;99.90;;;;;;4934806;28;19933;-60
2023/12/21 06:34:17;;;;;;;;;;;9.20;99.90;;;;;;4952478;28;19929;-60
2023/12/21 06:36:43;;;;;;;;;;;9.20;99.90;;;;;;4952804;28;19926;-60
2023/12/21 06:39:09;;;;;;;;;;;9.20;99.90;;;;;;4949819;28;19933;-60
2023/12/21 06:41:34;;;;;;;;;;;9.20;99.90;;;;;;4939892;28;20370;-60
2023/12/21 06:44:00;;;;;;;;;;;9.20;99.90;;;;;;4941803;28;19928;-60
2023/12/21 06:46:26;;;;;;;;;;;9.20;99.90;;;;;;4944383;28;20381;-59
2023/12/21 06:48:51;;;;;;;;;;;9.30;99.90;;;;;;4942983;28;20005;-60
2023/12/21 06:51:17;;;;;;;;;;;9.30;99.90;;;;;;4953330;28;19926;-60
2023/12/21 06:53:42;;;;;;;;;;;9.20;99.90;;;;;;4942848;28;19929;-60
2023/12/21 06:56:11;;;;;;;;;;;9.30;99.90;;;;;;4956325;28;19925;-60
2023/12/21 06:58:37;;;;;;;;;;;9.30;99.90;;;;;;4952257;28;19973;-60
2023/12/21 07:01:02;;;;;;;;;;;9.20;99.90;;;;;;4953514;28;20017;-60
2023/12/21 07:03:28;;;;;;;;;;;9.30;99.90;;;;;;4939376;28;20308;-60
2023/12/21 07:05:54;;;;;;;;;;;9.30;99.90;;;;;;4944162;28;20359;-61
2023/12/21 07:08:19;;;;;;;;;;;9.20;99.90;;;;;;4945793;28;20016;-60
2023/12/21 07:10:45;;;;;;;;;;;9.30;99.90;;;;;;4954249;28;19922;-60
2023/12/21 07:13:11;;;;;;;;;;;9.20;99.90;;;;;;4934459;28;20061;-60
2023/12/21 07:15:36;;;;;;;;;;;9.20;99.90;;;;;;4932846;28;20041;-61
2023/12/21 07:18:02;;;;;;;;;;;9.20;99.90;;;;;;4937101;28;19933;-61
2023/12/21 07:20:30;;;;;;;;;;;9.20;99.90;;;;;;4926604;28;19987;-61
2023/12/21 07:22:56;;;;;;;;;;;9.30;99.90;;;;;;4916812;28;23874;-60
2023/12/21 07:25:22;;;;;;;;;;;9.30;99.90;;;;;;4909889;28;19926;-61
2023/12/21 07:27:47;;;;;;;;;;;9.30;99.90;;;;;;4923925;28;19926;-61
2023/12/21 07:30:13;;;;;;;;;;;9.30;99.90;;;;;;4930611;28;19926;-60
2023/12/21 07:32:39;;;;;;;;;;;9.30;99.90;;;;;;4923507;28;19930;-60
2023/12/21 07:35:05;;;;;;;;;;;9.30;99.90;;;;;;4921917;28;19922;-60
2023/12/21 07:37:31;;;;;;;;;;;9.30;99.90;;;;;;4938252;28;19919;-61
2023/12/21 07:39:57;;;;;;;;;;;9.30;99.90;;;;;;4917481;28;19922;-61
2023/12/21 07:42:22;;;;;;;;;;;9.30;99.90;;;;;;4933823;28;20188;-61
2023/12/21 07:44:48;;;;;;;;;;;9.30;99.90;;;;;;4932011;28;19978;-60
2023/12/21 07:47:13;;;;;;;;;;;9.30;99.90;;;;;;4907749;28;19929;-60
2023/12/21 07:49:39;;;;;;;;;;;9.30;99.90;;;;;;4921443;28;19944;-60
2023/12/21 07:52:05;;;;;;;;;;;9.30;99.90;;;;;;4920108;29;19922;-61
2023/12/21 07:54:30;;;;;;;;;;;9.30;99.90;;;;;;4903900;29;19927;-60
2023/12/21 07:56:56;;;;;;;;;;;9.30;99.90;;;;;;4910430;28;20405;-59
2023/12/21 07:59:22;;;;;;;;;;;9.30;99.90;;;;;;4918488;28;20187;-59
2023/12/21 08:01:48;;;;;;;;;;;9.30;99.90;;;;;;4914559;28;20051;-60
2023/12/21 08:04:13;;;;;;;;;;;9.30;99.90;;;;;;4916365;28;19928;-60
2023/12/21 08:06:39;;;;;;;;;;;9.30;99.90;;;;;;4916505;28;19926;-60
2023/12/21 08:09:04;;;;;;;;;;;9.30;99.90;;;;;;4919219;28;20231;-60
2023/12/21 08:11:30;;;;;;;;;;;9.30;99.90;;;;;;4920898;28;19926;-60
2023/12/21 08:13:56;;;;;;;;;;;9.30;99.90;;;;;;4915938;28;19928;-61
2023/12/21 08:16:21;;;;;;;;;;;9.40;99.90;;;;;;4936941;28;19922;-60
2023/12/21 08:18:47;;;;;;;;;;;9.40;99.90;;;;;;4917257;28;20000;-59
2023/12/21 08:21:12;;;;;;;;;;;9.40;99.90;;;;;;4943823;28;20297;-58
2023/12/21 08:23:39;;;;;;;;;;;9.40;99.90;;;;;;4929873;28;19926;-59
2023/12/21 08:26:05;;;;;;;;;;;9.40;99.90;;;;;;4956631;28;19926;-58
2023/12/21 08:28:31;;;;;;;;;;;9.40;99.90;;;;;;4937816;28;19961;-60
2023/12/21 08:30:57;;;;;;;;;;;9.40;99.90;;;;;;4962174;28;20361;-59
2023/12/21 08:33:23;;;;;;;;;;;9.50;99.90;;;;;;4945520;28;20384;-59
2023/12/21 08:35:48;;;;;;;;;;;9.50;99.90;;;;;;4942360;28;19918;-59
2023/12/21 08:38:14;;;;;;;;;;;9.50;99.90;;;;;;4959841;28;19926;-59
2023/12/21 08:40:39;;;;;;;;;;;9.50;99.90;;;;;;4940672;28;19944;-57
2023/12/21 08:43:05;;;;;;;;;;;9.60;99.90;;;;;;4959623;28;19921;-59
2023/12/21 08:45:32;;;;;;;;;;;9.60;99.90;;;;;;4960167;28;19984;-60
2023/12/21 08:47:57;;;;;;;;;;;9.60;99.90;;;;;;4963787;28;21085;-59
2023/12/21 08:50:23;;;;;;;;;;;9.70;99.90;;;;;;4960848;28;20376;-60
2023/12/21 08:52:49;;;;;;;;;;;9.70;99.90;;;;;;4928975;28;26401;-59
2023/12/21 08:55:14;;;;;;;;;;;9.70;99.90;;;;;;4961286;28;19929;-60
2023/12/21 08:57:40;;;;;;;;;;;9.70;99.90;;;;;;4961189;28;20408;-59
2023/12/21 09:00:06;;;;;;;;;;;9.80;99.90;;;;;;4957425;28;19929;-58
2023/12/21 09:02:35;;;;;;;;;;;9.80;99.90;;;;;;4956536;28;19980;-59
2023/12/21 09:05:01;;;;;;;;;;;9.80;99.90;;;;;;4935436;28;20380;-59
2023/12/21 09:07:26;;;;;;;;;;;9.90;99.90;;;;;;4937939;28;19937;-60
2023/12/21 09:09:52;;;;;;;;;;;9.80;99.90;;;;;;4955350;28;20064;-59
2023/12/21 09:12:18;;;;;;;;;;;9.90;99.90;;;;;;4957703;28;20030;-58
2023/12/21 09:14:44;;;;;;;;;;;9.90;99.90;;;;;;4958884;28;19922;-59
2023/12/21 09:17:10;;;;;;;;;;;9.90;99.90;;;;;;4959582;28;20048;-58
2023/12/21 09:19:36;;;;;;;;;;;9.90;99.90;;;;;;4948695;28;19922;-58
2023/12/21 09:22:01;;;;;;;;;;;9.90;99.90;;;;;;4954401;28;19961;-59
2023/12/21 09:24:27;;;;;;;;;;;9.90;99.90;;;;;;4957547;28;20005;-60
2023/12/21 09:26:52;;;;;;;;;;;10.00;99.90;;;;;;4944418;28;19972;-59
2023/12/21 09:29:18;;;;;;;;;;;10.00;99.90;;;;;;4937206;28;20373;-59
2023/12/21 09:31:43;;;;;;;;;;;10.00;99.90;;;;;;4941877;28;19932;-59
2023/12/21 09:34:11;;;;;;;;;;;10.00;99.90;;;;;;4944089;28;19921;-59
2023/12/21 09:36:36;;;;;;;;;;;10.00;99.90;;;;;;4941707;28;20154;-59
2023/12/21 09:39:03;;;;;;;;;;;10.10;99.90;;;;;;4963476;28;20649;-59
2023/12/21 09:41:29;;;;;;;;;;;10.10;99.90;;;;;;4943895;28;19929;-59
2023/12/21 09:43:57;;;;;;;;;;;10.10;99.90;;;;;;4959857;28;20538;-59
2023/12/21 09:46:25;;;;;;;;;;;10.20;99.90;;;;;;4939065;28;20849;-59
2023/12/21 09:48:53;;;;;;;;;;;10.20;99.90;;;;;;4956638;28;19922;-58
2023/12/21 09:51:19;;;;;;;;;;;10.20;99.90;;;;;;4956589;28;19996;-59
2023/12/21 09:53:46;;;;;;;;;;;10.20;99.90;;;;;;4955558;28;19922;-57
2023/12/21 09:56:13;;;;;;;;;;;10.30;99.90;;;;;;4956574;28;20818;-59
2023/12/21 09:58:39;;;;;;;;;;;10.30;99.90;;;;;;4942519;28;19928;-59
2023/12/21 10:01:05;;;;;;;;;;;10.30;99.90;;;;;;4952718;28;20300;-59
2023/12/21 10:03:32;;;;;;;;;;;10.30;99.90;;;;;;4942540;28;19945;-59
2023/12/21 10:05:58;;;;;;;;;;;10.30;99.90;;;;;;4951495;28;19988;-58
2023/12/21 10:08:23;;;;;;;;;;;10.30;99.90;;;;;;4951666;28;19926;-59
2023/12/21 10:10:49;;;;;;;;;;;10.30;99.90;;;;;;4934432;28;19928;-60
2023/12/21 10:13:14;;;;;;;;;;;10.30;99.90;;;;;;4953260;28;20369;-60
2023/12/21 10:15:40;;;;;;;;;;;10.40;99.90;;;;;;4955056;28;19922;-59
2023/12/21 10:18:06;;;;;;;;;;;10.40;99.90;;;;;;4957670;28;19932;-59
2023/12/21 10:20:32;;;;;;;;;;;10.40;99.90;;;;;;4954480;28;19925;-59
2023/12/21 10:22:58;;;;;;;;;;;10.50;99.90;;;;;;4935560;28;20641;-60
2023/12/21 10:25:25;;;;;;;;;;;10.50;99.90;;;;;;4943392;28;19921;-58
2023/12/21 10:27:56;;;;;;;;;;;10.60;99.90;;;;;;4941017;28;20451;-59
2023/12/21 10:30:23;;;;;;;;;;;10.60;99.90;;;;;;4943342;28;26478;-59
2023/12/21 10:32:55;;;;;;;;;;;10.60;99.90;;;;;;4958244;28;20259;-59
2023/12/21 10:35:22;;;;;;;;;;;10.60;99.90;;;;;;4958954;28;20009;-60
2023/12/21 10:37:48;;;;;;;;;;;10.60;99.90;;;;;;4958974;28;19976;-59
2023/12/21 10:40:14;;;;;;;;;;;10.60;99.90;;;;;;4948624;28;20462;-59
2023/12/21 10:42:45;;;;;;;;;;;10.60;99.90;;;;;;4964717;28;20019;-59
2023/12/21 10:45:13;;;;;;;;;;;10.60;99.90;;;;;;4966700;28;19926;-60
2023/12/21 10:47:41;;;;;;;;;;;10.60;99.90;;;;;;4952078;28;19964;-58
2023/12/21 10:50:07;;;;;;;;;;;10.70;99.90;;;;;;4964826;28;20285;-59
2023/12/21 10:52:34;;;;;;;;;;;10.70;99.90;;;;;;4955690;28;20426;-59
2023/12/21 10:55:00;;;;;;;;;;;10.70;99.90;;;;;;4952764;28;19969;-59
2023/12/21 10:57:26;;;;;;;;;;;10.70;99.90;;;;;;4971956;28;19922;-59
2023/12/21 10:59:52;;;;;;;;;;;10.80;99.90;;;;;;4968625;28;19928;-59
2023/12/21 11:02:18;;;;;;;;;;;10.70;99.90;;;;;;4951297;28;19921;-59
2023/12/21 11:04:44;;;;;;;;;;;10.70;99.90;;;;;;4965486;28;20012;-59
2023/12/21 11:07:11;;;;;;;;;;;10.70;99.90;;;;;;4947503;28;20301;-60
2023/12/21 11:09:37;;;;;;;;;;;10.60;99.90;;;;;;4947657;28;19925;-59
2023/12/21 11:12:02;;;;;;;;;;;10.60;99.90;;;;;;4965078;28;20332;-60
2023/12/21 11:14:28;;;;;;;;;;;10.60;99.90;;;;;;4966863;28;19976;-59
2023/12/21 11:16:58;;;;;;;;;;;10.60;99.90;;;;;;4957356;28;19926;-59
2023/12/21 11:19:29;;;;;;;;;;;10.60;99.90;;;;;;4954579;28;19961;-58
2023/12/21 11:21:55;;;;;;;;;;;10.60;99.90;;;;;;4950124;28;20046;-60
2023/12/21 11:24:21;;;;;;;;;;;10.60;99.90;;;;;;4942009;28;19933;-59
2023/12/21 11:26:48;;;;;;;;;;;10.60;99.90;;;;;;4920489;28;19925;-59
2023/12/21 11:29:14;;;;;;;;;;;10.60;99.90;;;;;;4914385;28;19922;-58
2023/12/21 11:31:40;;;;;;;;;;;10.60;99.90;;;;;;4943869;28;19922;-59
2023/12/21 11:34:10;;;;;;;;;;;10.60;99.90;;;;;;4925993;28;19926;-59
2023/12/21 11:36:35;;;;;;;;;;;10.60;99.90;;;;;;4957807;28;19972;-57
2023/12/21 11:39:02;;;;;;;;;;;10.60;99.90;;;;;;4956476;28;19934;-59
2023/12/21 11:41:27;;;;;;;;;;;10.60;99.90;;;;;;4952951;28;19922;-60
2023/12/21 11:43:59;;;;;;;;;;;10.70;99.90;;;;;;4954557;28;19922;-59
2023/12/21 11:46:25;;;;;;;;;;;10.70;99.90;;;;;;4948837;28;19930;-59
2023/12/21 11:48:51;;;;;;;;;;;10.70;99.90;;;;;;4957328;28;19922;-59
2023/12/21 11:51:16;;;;;;;;;;;10.70;99.90;;;;;;4940692;28;19969;-59
2023/12/21 11:53:43;;;;;;;;;;;10.80;99.90;;;;;;4958305;28;19932;-59
2023/12/21 11:56:13;;;;;;;;;;;10.80;99.90;;;;;;4939672;28;20357;-59
2023/12/21 11:58:39;;;;;;;;;;;10.80;99.90;;;;;;4952943;28;20032;-59
2023/12/21 12:01:05;;;;;;;;;;;10.80;99.90;;;;;;4951088;28;19999;-59
2023/12/21 12:03:31;;;;;;;;;;;10.70;99.90;;;;;;4954507;28;19925;-59
2023/12/21 12:06:03;;;;;;;;;;;10.80;99.90;;;;;;4950600;28;19930;-59
2023/12/21 12:08:29;;;;;;;;;;;10.80;99.90;;;;;;4954795;28;19922;-58
2023/12/21 12:10:56;;;;;;;;;;;10.80;99.90;;;;;;4935712;28;19976;-59
2023/12/21 12:13:21;;;;;;;;;;;10.80;99.90;;;;;;4959384;28;19953;-59
2023/12/21 12:15:48;;;;;;;;;;;10.80;99.90;;;;;;4950006;28;20048;-59
2023/12/21 12:18:14;;;;;;;;;;;10.80;99.90;;;;;;4943899;28;19918;-59
2023/12/21 12:20:43;;;;;;;;;;;10.80;99.90;;;;;;4940802;28;19922;-59
2023/12/21 12:23:09;;;;;;;;;;;10.80;99.90;;;;;;4959800;28;19956;-59
2023/12/21 12:25:35;;;;;;;;;;;10.80;99.90;;;;;;4953839;28;19978;-58
2023/12/21 12:28:03;;;;;;;;;;;10.80;99.90;;;;;;4953960;28;19988;-57
2023/12/21 12:30:29;;;;;;;;;;;10.80;99.90;;;;;;4958658;28;20336;-59
2023/12/21 12:32:55;;;;;;;;;;;10.80;99.90;;;;;;4959111;28;20040;-59
2023/12/21 12:35:21;;;;;;;;;;;10.80;99.90;;;;;;4960799;28;19927;-59
2023/12/21 12:37:48;;;;;;;;;;;10.70;99.90;;;;;;4961892;28;19928;-59
2023/12/21 12:40:13;;;;;;;;;;;10.70;99.90;;;;;;4956159;28;19922;-59
2023/12/21 12:42:39;;;;;;;;;;;10.70;99.90;;;;;;4962366;28;20453;-59
2023/12/21 12:45:06;;;;;;;;;;;10.70;99.90;;;;;;4955514;28;19922;-59
2023/12/21 12:47:33;;;;;;;;;;;10.60;99.90;;;;;;4938601;28;19946;-59
2023/12/21 12:50:03;;;;;;;;;;;10.20;99.90;;;;;;4936253;28;19922;-59
2023/12/21 12:52:29;;;;;;;;;;;9.70;99.90;;;;;;4931654;28;19965;-58
2023/12/21 12:54:54;;;;;;;;;;;9.40;99.90;;;;;;4940180;28;19980;-58
2023/12/21 12:57:30;;;;;;;;;;;9.10;99.90;;;;;;4940510;28;19922;-59
2023/12/21 12:59:59;;;;;;;;;;;8.90;99.90;;;;;;4944186;28;20053;-59
2023/12/21 13:02:25;;;;;;;;;;;8.60;99.90;;;;;;4953039;28;19922;-58
2023/12/21 13:04:50;;;;;;;;;;;8.50;99.90;;;;;;4952419;28;19937;-59
2023/12/21 13:07:17;;;;;;;;;;;8.30;99.90;;;;;;4951975;28;19974;-57
2023/12/21 13:09:43;;;;;;;;;;;8.20;99.90;;;;;;4938105;28;19926;-59
2023/12/21 13:12:08;;;;;;;;;;;8.10;99.90;;;;;;4951999;28;20007;-59
2023/12/21 13:14:34;;;;;;;;;;;8.10;99.90;;;;;;4934051;28;20261;-59
2023/12/21 13:16:59;;;;;;;;;;;8.00;99.90;;;;;;4941398;28;19973;-60
2023/12/21 13:19:25;;;;;;;;;;;8.00;99.90;;;;;;4950762;28;20504;-59
2023/12/21 13:21:51;;;;;;;;;;;7.90;99.90;;;;;;4945925;28;20037;-59
2023/12/21 13:24:16;;;;;;;;;;;7.90;99.90;;;;;;4945486;28;20424;-59
2023/12/21 13:26:43;;;;;;;;;;;7.80;99.90;;;;;;4944389;28;19930;-58
2023/12/21 13:29:08;;;;;;;;;;;7.80;99.90;;;;;;4948143;28;20406;-58
2023/12/21 13:31:34;;;;;;;;;;;7.80;99.90;;;;;;4948994;28;20013;-59
2023/12/21 13:34:00;;;;;;;;;;;7.80;99.90;;;;;;4949185;28;20024;-58
2023/12/21 13:36:25;;;;;;;;;;;7.70;99.90;;;;;;4939044;28;19922;-58
2023/12/21 13:38:52;;;;;;;;;;;7.80;99.90;;;;;;4960070;28;19926;-58
2023/12/21 13:41:19;;;;;;;;;;;7.80;99.90;;;;;;4960482;28;20334;-58
2023/12/21 13:43:44;;;;;;;;;;;7.80;99.90;;;;;;4960926;28;19925;-59
2023/12/21 13:46:11;;;;;;;;;;;7.80;99.90;;;;;;4945237;28;19984;-58
2023/12/21 13:48:37;;;;;;;;;;;7.80;99.90;;;;;;4958510;28;19922;-59
2023/12/21 13:51:02;;;;;;;;;;;7.80;99.90;;;;;;4959291;28;20454;-59
2023/12/21 13:53:28;;;;;;;;;;;7.60;99.90;;;;;;4940951;28;20009;-59
2023/12/21 13:55:53;;;;;;;;;;;7.60;99.90;;;;;;4953387;28;20379;-59
2023/12/21 13:58:20;;;;;;;;;;;7.50;99.90;;;;;;4941522;28;20054;-59
2023/12/21 14:00:46;;;;;;;;;;;7.50;99.90;;;;;;4957780;28;19929;-59
2023/12/21 14:03:14;;;;;;;;;;;7.30;99.90;;;;;;4948943;28;19918;-58
2023/12/21 14:05:42;;;;;;;;;;;7.30;99.90;;;;;;4949721;28;19922;-59
2023/12/21 14:08:08;;;;;;;;;;;7.10;99.90;;;;;;4956947;28;19929;-59
2023/12/21 14:10:34;;;;;;;;;;;7.10;99.90;;;;;;4938853;28;19918;-59
2023/12/21 14:13:01;;;;;;;;;;;7.00;99.90;;;;;;4935613;28;19933;-58
2023/12/21 14:15:27;;;;;;;;;;;6.90;99.90;;;;;;4939502;28;20467;-59
2023/12/21 14:17:52;;;;;;;;;;;6.90;99.90;;;;;;4954917;28;19977;-59